Time;durP1;ratioP1;P1;durP2;ratioP2;P2;SDS_P1;SDS_P2;PMS_P1;PMS_P2;Temp;Humidity;BMP_temperature;BMP_pressure;BME280_temperature;BME280_humidity;BME280_pressure;Samples;Min_cycle;Max_cycle;Signal;HPM_P1;HPM_P2
2022/03/03 05:56:53;;;;;;;;;29.25;28.75;;;;;16.64;52.38;101299.41;5115858;27;45570;-78
2022/03/03 05:59:23;;;;;;;;;37.25;32.50;;;;;16.91;52.62;101292.19;5111115;27;45454;-78
2022/03/03 06:01:49;;;;;;;;;26.00;25.25;;;;;17.27;52.80;101303.06;5108688;27;45427;-79
2022/03/03 06:04:15;;;;;;;;;24.75;24.75;;;;;17.70;52.17;101288.28;5104132;27;45483;-78
2022/03/03 06:06:48;;;;;;;;;28.00;24.50;;;;;18.19;51.69;101301.63;5103607;27;46131;-78
2022/03/03 06:09:15;;;;;;;;;29.75;27.75;;;;;18.66;51.10;101293.47;5108805;27;45870;-78
2022/03/03 06:12:02;;;;;;;;;27.50;26.00;;;;;19.20;50.52;101307.13;5105248;27;45517;-78
2022/03/03 06:14:37;;;;;;;;;31.00;26.00;;;;;19.69;50.03;101293.25;5107002;27;45715;-76
2022/03/03 06:17:04;;;;;;;;;35.50;31.50;;;;;20.07;49.30;101288.31;5108551;27;46123;-74
2022/03/03 06:19:29;;;;;;;;;30.75;28.25;;;;;20.42;48.61;101295.19;5109346;27;45509;-76
2022/03/03 06:21:55;;;;;;;;;31.75;28.50;;;;;20.71;48.09;101285.50;5108247;27;45248;-76
2022/03/03 06:24:20;;;;;;;;;28.50;26.50;;;;;20.99;48.10;101289.31;5109327;27;45466;-78
2022/03/03 06:26:47;;;;;;;;;27.50;27.25;;;;;21.22;47.89;101294.50;5108235;27;45474;-78
2022/03/03 06:29:13;;;;;;;;;27.25;27.00;;;;;21.44;47.27;101300.63;5110138;27;45577;-78
2022/03/03 06:31:39;;;;;;;;;30.75;30.00;;;;;21.62;47.37;101298.06;5098603;27;45591;-78
2022/03/03 06:34:04;;;;;;;;;32.75;30.75;;;;;21.81;46.31;101297.25;5101983;27;45903;-79
2022/03/03 06:36:29;;;;;;;;;26.00;26.00;;;;;22.01;46.56;101297.22;5107169;27;45475;-79
2022/03/03 06:38:55;;;;;;;;;26.75;26.50;;;;;22.20;45.95;101293.59;5110040;27;45561;-79
2022/03/03 06:41:20;;;;;;;;;28.50;27.00;;;;;22.38;46.29;101292.84;5111291;27;45424;-79
2022/03/03 06:43:45;;;;;;;;;27.75;23.00;;;;;22.51;45.80;101297.91;5108222;27;45491;-79
2022/03/03 06:46:11;;;;;;;;;32.00;27.25;;;;;22.67;45.72;101302.72;5107082;27;45465;-79
2022/03/03 06:48:36;;;;;;;;;26.25;24.00;;;;;22.83;45.33;101304.78;5107323;27;45615;-76
2022/03/03 06:51:04;;;;;;;;;28.00;25.25;;;;;22.95;44.82;101304.56;5110945;27;45408;-77
2022/03/03 06:53:33;;;;;;;;;28.00;26.25;;;;;23.09;44.88;101311.34;5118469;27;45482;-75
2022/03/03 06:56:10;;;;;;;;;27.25;25.75;;;;;23.17;44.62;101306.88;5107811;27;46315;-77
2022/03/03 06:58:37;;;;;;;;;26.25;24.75;;;;;23.26;44.38;101312.38;5099579;27;45783;-75
2022/03/03 07:01:08;;;;;;;;;29.75;26.75;;;;;23.30;43.89;101327.34;5105400;27;45862;-71
2022/03/03 07:03:35;;;;;;;;;31.25;28.75;;;;;23.35;43.56;101313.34;5110888;27;45763;-76
2022/03/03 07:06:02;;;;;;;;;25.75;25.75;;;;;23.37;43.53;101298.66;5102348;27;46382;-77
2022/03/03 07:08:28;;;;;;;;;30.00;26.75;;;;;23.40;43.24;101316.44;5092128;27;45434;-76
2022/03/03 07:10:53;;;;;;;;;28.50;27.50;;;;;23.43;43.02;101325.09;5090412;27;45789;-78
2022/03/03 07:13:19;;;;;;;;;31.00;29.00;;;;;23.47;43.08;101320.25;5095188;27;45574;-79
2022/03/03 07:15:59;;;;;;;;;27.00;26.00;;;;;23.51;43.27;101309.94;5095744;27;46309;-77
2022/03/03 07:18:34;;;;;;;;;27.50;26.50;;;;;23.53;43.32;101311.50;5097205;27;45716;-78
2022/03/03 07:21:10;;;;;;;;;28.75;28.25;;;;;23.62;43.82;101322.41;5094174;27;45695;-76
2022/03/03 07:23:38;;;;;;;;;29.25;25.25;;;;;23.69;43.41;101315.34;5094192;27;45706;-77
2022/03/03 07:26:10;;;;;;;;;27.50;27.50;;;;;23.78;43.14;101311.72;5093836;27;45525;-78
2022/03/03 07:28:40;;;;;;;;;28.00;27.25;;;;;23.87;43.38;101309.06;5090327;27;45493;-75
2022/03/03 07:31:07;;;;;;;;;29.75;29.75;;;;;23.95;43.09;101312.69;5089428;27;45650;-72
2022/03/03 07:33:52;;;;;;;;;32.00;27.75;;;;;24.05;43.01;101311.75;5092595;27;45466;-73
2022/03/03 07:36:24;;;;;;;;;37.25;31.00;;;;;24.13;42.70;101309.13;5091090;27;46494;-74
2022/03/03 07:38:58;;;;;;;;;32.75;30.50;;;;;24.20;42.75;101310.19;5107616;27;45571;-75
2022/03/03 07:41:25;;;;;;;;;33.50;31.25;;;;;24.24;42.62;101312.59;5094504;27;45498;-74
2022/03/03 07:43:52;;;;;;;;;35.75;28.25;;;;;24.26;42.57;101307.84;5089063;27;45689;-75
2022/03/03 07:46:17;;;;;;;;;31.00;28.50;;;;;24.30;42.39;101314.66;5093085;27;45783;-74
2022/03/03 07:48:46;;;;;;;;;30.75;29.75;;;;;24.32;42.82;101313.47;5094900;27;45501;-77
2022/03/03 07:51:12;;;;;;;;;29.50;26.25;;;;;24.36;42.68;101310.47;5096149;27;45500;-77
2022/03/03 07:53:38;;;;;;;;;27.75;27.00;;;;;24.36;42.56;101303.16;5098398;27;45512;-78
2022/03/03 07:56:04;;;;;;;;;29.50;29.00;;;;;24.38;42.64;101305.72;5092052;27;45519;-78
2022/03/03 07:58:38;;;;;;;;;28.25;26.00;;;;;24.38;42.78;101305.72;5088190;27;45547;-75
2022/03/03 08:01:05;;;;;;;;;28.00;25.50;;;;;24.38;42.68;101301.16;5092025;27;45568;-77
2022/03/03 08:03:31;;;;;;;;;26.50;25.25;;;;;24.41;42.46;101306.25;5088715;27;45576;-77
2022/03/03 08:05:57;;;;;;;;;28.75;26.75;;;;;24.41;42.81;101303.56;5092835;27;45980;-77
2022/03/03 08:08:26;;;;;;;;;31.00;28.25;;;;;24.45;42.72;101299.47;5093009;27;45595;-77
2022/03/03 08:10:57;;;;;;;;;28.75;25.50;;;;;24.51;43.24;101308.84;5106866;27;45655;-78
2022/03/03 08:13:26;;;;;;;;;30.75;28.25;;;;;24.54;42.96;101296.81;5089404;27;45930;-78
2022/03/03 08:15:52;;;;;;;;;27.50;24.50;;;;;24.60;42.84;101298.88;5090318;27;46400;-76
2022/03/03 08:18:19;;;;;;;;;28.50;27.75;;;;;24.65;42.53;101301.97;5091219;27;45525;-79
2022/03/03 08:20:44;;;;;;;;;26.75;26.25;;;;;24.72;42.34;101302.16;5091242;27;45745;-78
2022/03/03 08:23:11;;;;;;;;;29.00;26.25;;;;;24.77;43.06;101310.66;5094014;27;45554;-78
2022/03/03 08:25:36;;;;;;;;;30.50;27.25;;;;;24.79;42.54;101303.22;5102926;27;46127;-82
2022/03/03 08:28:03;;;;;;;;;26.00;24.50;;;;;24.83;42.59;101303.75;5088753;27;47942;-80
2022/03/03 08:30:29;;;;;;;;;24.25;24.25;;;;;24.84;42.38;101297.31;5090409;27;45661;-81
2022/03/03 08:33:18;;;;;;;;;27.50;25.50;;;;;24.86;42.67;101300.72;5091904;27;45734;-76
2022/03/03 08:35:52;;;;;;;;;27.00;24.25;;;;;24.85;42.83;101297.16;5086613;27;45537;-78
2022/03/03 08:38:29;;;;;;;;;27.00;26.00;;;;;24.86;42.69;101301.56;5084498;27;45429;-76
2022/03/03 08:40:57;;;;;;;;;29.00;25.50;;;;;24.86;42.41;101296.13;5090102;27;45471;-79
2022/03/03 08:43:23;;;;;;;;;28.50;27.25;;;;;24.86;42.63;101293.41;5086886;27;45478;-79
2022/03/03 08:45:49;;;;;;;;;26.00;25.00;;;;;24.85;42.61;101294.44;5085166;27;45699;-80
2022/03/03 08:48:15;;;;;;;;;24.25;21.50;;;;;24.85;42.77;101294.44;5089831;27;45403;-78
2022/03/03 08:50:42;;;;;;;;;24.00;22.00;;;;;24.88;42.83;101303.28;5083239;27;45557;-76
2022/03/03 08:53:09;;;;;;;;;27.50;24.75;;;;;24.86;42.46;101304.28;5086913;27;45764;-78
2022/03/03 08:55:37;;;;;;;;;21.33;21.33;;;;;24.89;42.99;101311.22;5102072;27;47980;-80
2022/03/03 08:58:03;;;;;;;;;27.75;20.75;;;;;24.95;42.84;101309.75;5085970;27;45516;-77
2022/03/03 09:00:30;;;;;;;;;22.25;22.25;;;;;24.99;42.96;101313.81;5089618;27;45668;-77
2022/03/03 09:02:58;;;;;;;;;23.50;23.50;;;;;25.02;42.85;101309.94;5086565;27;45461;-79
2022/03/03 09:05:24;;;;;;;;;25.75;23.00;;;;;25.05;42.76;101313.16;5084920;27;45523;-82
2022/03/03 09:07:50;;;;;;;;;23.00;23.00;;;;;25.08;42.66;101307.41;5086522;27;45458;-77
2022/03/03 09:10:16;;;;;;;;;22.75;19.75;;;;;25.10;42.26;101297.22;5086489;27;45631;-77
2022/03/03 09:12:42;;;;;;;;;24.25;21.75;;;;;25.11;43.18;101315.25;5087455;27;45484;-79
2022/03/03 09:15:09;;;;;;;;;28.00;23.33;;;;;25.13;42.09;101315.03;5080181;27;46284;-77
2022/03/03 09:17:35;;;;;;;;;26.67;21.67;;;;;25.13;42.63;101315.03;5079323;27;45578;-75
2022/03/03 09:20:03;;;;;;;;;20.67;20.00;;;;;25.11;42.49;101317.94;5083821;27;45524;-76
2022/03/03 09:22:28;;;;;;;;;22.67;21.67;;;;;25.10;42.36;101309.97;5086078;27;45604;-73
2022/03/03 09:24:54;;;;;;;;;26.33;24.00;;;;;25.11;42.57;101306.22;5079091;27;49698;-75
2022/03/03 09:27:20;;;;;;;;;21.33;20.00;;;;;25.08;42.77;101303.81;5080210;27;45837;-75
2022/03/03 09:29:45;;;;;;;;;22.00;22.00;;;;;25.04;42.77;101299.75;5080396;27;45501;-74
2022/03/03 09:32:13;;;;;;;;;26.75;26.00;;;;;25.05;42.71;101306.91;5082075;27;45460;-78
2022/03/03 09:34:39;;;;;;;;;20.33;20.00;;;;;25.06;42.87;101305.88;5080430;27;47162;-76
2022/03/03 09:37:04;;;;;;;;;21.33;20.67;;;;;25.06;43.31;101312.13;5081143;27;45776;-76
2022/03/03 09:39:29;;;;;;;;;22.33;19.67;;;;;25.06;42.92;101319.47;5080586;27;46024;-78
2022/03/03 09:41:55;;;;;;;;;26.67;22.33;;;;;25.07;42.87;101315.72;5080607;27;45498;-77
2022/03/03 09:44:26;;;;;;;;;21.00;20.00;;;;;25.09;42.68;101319.13;5080663;27;46459;-77
2022/03/03 09:46:52;;;;;;;;;22.00;22.00;;;;;25.11;42.78;101320.66;5081764;27;45855;-78
2022/03/03 09:49:18;;;;;;;;;21.67;20.00;;;;;25.17;42.98;101321.03;5083320;27;45501;-78
2022/03/03 09:51:44;;;;;;;;;22.00;20.67;;;;;25.21;42.62;101314.22;5080588;27;45574;-78
2022/03/03 09:54:09;;;;;;;;;22.50;20.25;;;;;25.20;42.90;101313.38;5083362;27;45972;-77
2022/03/03 09:56:36;;;;;;;;;24.67;21.00;;;;;25.21;42.93;101311.50;5081422;27;45435;-77
2022/03/03 09:59:02;;;;;;;;;19.00;19.00;;;;;25.22;42.84;101321.38;5085536;27;45563;-78
2022/03/03 10:01:29;;;;;;;;;22.33;20.67;;;;;25.23;42.65;101317.63;5085051;27;46005;-77
2022/03/03 10:03:58;;;;;;;;;20.00;18.67;;;;;25.21;43.07;101315.06;5082003;27;46350;-77
2022/03/03 10:06:24;;;;;;;;;17.67;17.00;;;;;25.22;43.07;101319.47;5105048;27;45839;-78
2022/03/03 10:08:50;;;;;;;;;20.67;20.67;;;;;25.21;42.91;101309.66;5085134;27;45512;-74
2022/03/03 10:11:16;;;;;;;;;17.33;17.33;;;;;25.19;43.15;101317.13;5083309;27;45643;-79
2022/03/03 10:13:48;;;;;;;;;23.00;20.67;;;;;25.18;42.85;101315.41;5083509;27;46531;-77
2022/03/03 10:16:29;;;;;;;;;16.00;16.00;;;;;25.16;43.02;101308.44;5088711;27;45730;-75
2022/03/03 10:18:59;;;;;;;;;19.33;18.67;;;;;25.20;43.35;101313.38;5097867;27;45660;-75
2022/03/03 10:21:29;;;;;;;;;20.00;20.00;;;;;25.23;43.32;101312.19;5091145;27;45969;-79
2022/03/03 10:23:56;;;;;;;;;24.33;23.00;;;;;25.29;42.72;101313.41;5086644;27;46684;-72
2022/03/03 10:26:34;;;;;;;;;25.75;22.25;;;;;25.30;40.86;101306.94;5078879;27;45618;-76
2022/03/03 10:28:59;;;;;;;;;27.67;23.67;;;;;25.26;40.70;101306.44;5078641;27;45524;-75
2022/03/03 10:31:25;;;;;;;;;33.75;27.75;;;;;25.25;40.67;101304.72;5085422;27;45535;-76
2022/03/03 10:33:51;;;;;;;;;28.00;25.67;;;;;25.27;40.72;101300.81;5086662;27;47291;-75
2022/03/03 10:36:20;;;;;;;;;30.50;27.50;;;;;25.31;40.33;101304.06;5082466;27;45781;-76
2022/03/03 10:38:53;;;;;;;;;24.33;22.67;;;;;25.38;40.61;101304.25;5103825;27;50672;-76
2022/03/03 10:41:30;;;;;;;;;26.67;25.00;;;;;25.39;40.71;101298.63;5079931;27;45477;-77
2022/03/03 10:44:02;;;;;;;;;24.00;22.67;;;;;25.41;40.79;101294.91;5078516;27;46644;-78
2022/03/03 10:46:28;;;;;;;;;23.67;23.33;;;;;25.48;40.79;101299.50;5085260;27;45866;-78
2022/03/03 10:48:54;;;;;;;;;23.00;20.33;;;;;25.51;40.91;101301.03;5088955;27;45428;-77
2022/03/03 10:51:24;;;;;;;;;25.00;22.33;;;;;25.53;40.77;101304.44;5087685;27;45728;-80
2022/03/03 10:53:49;;;;;;;;;28.00;23.67;;;;;25.48;40.97;101288.63;5090545;27;47175;-79
2022/03/03 10:56:19;;;;;;;;;22.00;21.33;;;;;25.50;41.11;101300.19;5091675;27;45463;-80
2022/03/03 10:58:49;;;;;;;;;21.00;19.00;;;;;25.51;41.12;101298.31;5080943;27;45519;-78
2022/03/03 11:01:18;;;;;;;;;26.67;22.33;;;;;25.51;41.29;101298.31;5084542;27;45620;-78
2022/03/03 11:03:49;;;;;;;;;25.00;23.67;;;;;25.56;41.11;101295.13;5080341;27;45777;-81
2022/03/03 11:06:16;;;;;;;;;19.67;19.33;;;;;25.58;41.21;101298.53;5089300;27;45836;-80
2022/03/03 11:08:41;;;;;;;;;25.00;21.00;;;;;25.60;41.43;101293.75;5085514;27;45760;-80
2022/03/03 11:11:08;;;;;;;;;22.33;18.33;;;;;25.67;40.88;101294.78;5082626;27;45883;-83
2022/03/03 11:13:35;;;;;;;;;23.33;21.67;;;;;25.72;41.17;101286.13;5082995;27;46190;-80
2022/03/03 11:16:01;;;;;;;;;20.67;19.33;;;;;25.76;41.08;101292.91;5085405;27;45518;-78
2022/03/03 11:18:28;;;;;;;;;20.33;19.00;;;;;25.79;41.17;101287.16;5086585;27;45623;-79
2022/03/03 11:20:57;;;;;;;;;23.67;19.67;;;;;25.83;41.20;101283.03;5084144;27;45706;-80
2022/03/03 11:23:23;;;;;;;;;22.33;18.67;;;;;25.87;40.96;101278.97;5085744;27;45441;-81
2022/03/03 11:25:51;;;;;;;;;22.00;21.33;;;;;25.97;40.93;101286.09;5088702;27;45561;-80
2022/03/03 11:28:19;;;;;;;;;20.00;20.00;;;;;26.02;40.61;101286.44;5084660;27;45890;-79
2022/03/03 11:30:46;;;;;;;;;20.33;16.33;;;;;26.05;41.02;101280.66;5088129;27;45748;-80
2022/03/03 11:33:30;;;;;;;;;22.67;20.33;;;;;26.06;40.87;101282.34;5092498;27;46349;-83
2022/03/03 11:35:58;;;;;;;;;21.00;18.33;;;;;26.06;40.23;101279.63;5082948;27;45841;-80
2022/03/03 11:38:26;;;;;;;;;25.00;19.33;;;;;26.03;40.29;101269.06;5078089;27;45588;-81
2022/03/03 11:40:53;;;;;;;;;22.00;20.67;;;;;26.02;40.86;101276.41;5086730;27;45516;-81
2022/03/03 11:43:19;;;;;;;;;21.00;19.33;;;;;25.98;40.45;101275.03;5083639;27;47747;-82
2022/03/03 11:45:56;;;;;;;;;21.00;20.00;;;;;25.95;40.92;101266.41;5081793;27;45850;-80
2022/03/03 11:48:23;;;;;;;;;33.67;24.33;;;;;25.92;38.97;101265.69;5085624;27;45699;-78
2022/03/03 11:50:50;;;;;;;;;23.67;23.33;;;;;25.82;38.53;101280.53;5079527;27;45414;-74
2022/03/03 11:53:19;;;;;;;;;46.75;38.50;;;;;25.69;38.47;101267.41;5094489;27;45468;-73
2022/03/03 11:56:04;;;;;;;;;46.25;35.50;;;;;25.53;38.89;101264.53;5092032;27;45880;-74
2022/03/03 11:58:40;;;;;;;;;44.50;33.75;;;;;25.42;38.94;101267.56;5101570;27;45554;-75
2022/03/03 12:01:08;;;;;;;;;47.25;33.50;;;;;25.42;39.20;101264.84;5086499;27;45704;-82
2022/03/03 12:04:01;;;;;;;;;44.25;32.00;;;;;25.45;39.18;101266.38;5089860;27;45827;-80
2022/03/03 12:06:38;;;;;;;;;43.25;33.25;;;;;25.49;39.43;101257.72;5082739;27;45411;-78
2022/03/03 12:09:26;;;;;;;;;37.50;31.00;;;;;25.56;39.75;101255.22;5089884;27;45980;-77
2022/03/03 12:12:09;;;;;;;;;43.50;32.25;;;;;25.61;39.51;101258.25;5092644;27;45508;-80
2022/03/03 12:14:39;;;;;;;;;41.00;29.50;;;;;25.68;39.29;101263.00;5095565;27;46195;-79
2022/03/03 12:17:42;;;;;;;;;39.50;30.00;;;;;25.69;39.56;101254.69;5088004;27;45578;-78
2022/03/03 12:20:35;;;;;;;;;37.75;29.00;;;;;25.71;39.34;101252.63;5094400;27;45474;-77
2022/03/03 12:23:04;;;;;;;;;41.25;31.50;;;;;25.71;39.67;101257.25;5092644;27;45762;-85
2022/03/03 12:25:50;;;;;;;;;37.75;31.75;;;;;25.73;39.49;101249.75;5092190;27;46280;-79
2022/03/03 12:28:22;;;;;;;;;35.75;28.75;;;;;25.73;39.71;101247.03;5086667;27;45617;-82
2022/03/03 12:30:50;;;;;;;;;32.50;29.50;;;;;25.74;39.54;101243.28;5086393;27;45799;-78
2022/03/03 12:33:24;;;;;;;;;34.00;27.33;;;;;25.76;39.84;101233.94;5086748;27;45913;-78
2022/03/03 12:35:51;;;;;;;;;34.50;24.75;;;;;25.78;39.64;101242.78;5091302;27;47281;-82
2022/03/03 12:38:17;;;;;;;;;36.50;29.25;;;;;25.79;40.09;101230.88;5097758;27;45506;-83
2022/03/03 12:40:44;;;;;;;;;36.67;29.67;;;;;25.86;39.85;101230.19;5088577;27;45572;-84
2022/03/03 12:43:12;;;;;;;;;28.33;25.33;;;;;25.92;40.27;101237.69;5097928;27;45779;-83
2022/03/03 12:45:38;;;;;;;;;28.75;23.75;;;;;25.96;39.54;101236.31;5086642;27;46614;-83
2022/03/03 12:48:04;;;;;;;;;27.67;25.00;;;;;26.01;40.20;101239.34;5088944;27;45684;-84
2022/03/03 12:50:30;;;;;;;;;29.00;25.33;;;;;26.06;39.91;101233.38;5091387;27;45644;-89
2022/03/03 12:52:55;;;;;;;;;33.00;27.33;;;;;26.10;39.83;101232.00;5090672;27;45542;-88
2022/03/03 12:55:26;;;;;;;;;28.67;23.67;;;;;26.12;40.07;101229.97;5091423;27;46747;-85
2022/03/03 12:57:52;;;;;;;;;19.67;18.33;;;;;26.14;39.90;101227.94;5087933;27;45901;-87
2022/03/03 13:00:17;;;;;;;;;22.00;21.67;;;;;26.19;40.29;101227.38;5090785;27;45542;-85
2022/03/03 13:02:59;;;;;;;;;27.33;23.00;;;;;26.23;39.92;101223.31;5093878;27;45507;-86
2022/03/03 13:05:29;;;;;;;;;28.00;24.67;;;;;26.25;39.85;101229.47;5086268;27;45656;-85
2022/03/03 13:07:54;;;;;;;;;23.67;21.67;;;;;26.26;40.15;101231.16;5125118;27;45548;-81
2022/03/03 13:10:19;;;;;;;;;24.67;21.00;;;;;26.26;40.22;101233.88;5090823;27;45574;-84
2022/03/03 13:12:45;;;;;;;;;28.00;26.00;;;;;26.27;39.98;101223.81;5093747;27;45476;-90
2022/03/03 13:15:11;;;;;;;;;27.67;21.00;;;;;26.25;40.12;101228.59;5085814;27;45592;-88
2022/03/03 13:17:58;;;;;;;;;20.33;18.00;;;;;26.23;39.34;101226.03;5090366;27;45581;-88
2022/03/03 13:20:25;;;;;;;;;26.67;22.00;;;;;26.23;39.34;101227.91;5093970;27;45626;-95
2022/03/03 13:22:50;;;;;;;;;31.33;26.00;;;;;26.18;38.57;101221.13;5090141;27;45573;-87
2022/03/03 13:25:19;;;;;;;;;32.50;27.75;;;;;26.13;37.62;101219.94;5090344;27;45883;-92
2022/03/03 13:27:47;;;;;;;;;25.33;23.00;;;;;25.99;37.69;101222.34;5089851;27;45764;-86
2022/03/03 13:30:13;;;;;;;;;29.00;23.67;;;;;25.91;38.30;101215.06;5090712;27;45774;-85
2022/03/03 13:32:44;;;;;;;;;32.75;25.50;;;;;25.90;38.24;101217.94;5087096;27;45481;-83
2022/03/03 13:35:11;;;;;;;;;28.00;22.33;;;;;25.90;38.43;101215.22;5091952;27;46917;-83
2022/03/03 13:37:36;;;;;;;;;24.67;23.00;;;;;25.94;38.33;101216.59;5087355;27;45459;-88
2022/03/03 13:40:29;;;;;;;;;26.33;24.00;;;;;25.99;38.81;101214.19;5092622;27;45676;-86
2022/03/03 13:42:57;;;;;;;;;27.00;25.33;;;;;26.04;38.91;101216.41;5092666;27;45500;-87
2022/03/03 13:45:25;;;;;;;;;30.67;22.00;;;;;26.06;38.57;101217.06;5100445;27;46369;-84
2022/03/03 13:48:09;;;;;;;;;26.00;22.00;;;;;26.10;38.75;101212.13;5090465;27;45429;-83
2022/03/03 13:50:38;;;;;;;;;30.33;24.00;;;;;26.13;39.18;101219.94;5088867;27;45557;-83
2022/03/03 13:53:24;;;;;;;;;23.00;22.33;;;;;26.13;38.69;101212.63;5101369;27;45354;-85
2022/03/03 13:56:09;;;;;;;;;24.67;21.67;;;;;26.14;38.99;101214.31;5099083;27;46168;-85
2022/03/03 13:58:35;;;;;;;;;19.00;18.00;;;;;26.14;39.03;101210.75;5098255;27;45588;-85
2022/03/03 14:01:03;;;;;;;;;22.00;17.33;;;;;26.13;39.38;101212.63;5093481;27;45470;-84
2022/03/03 14:03:42;;;;;;;;;23.67;19.33;;;;;26.15;39.71;101218.75;5085844;27;45701;-87
2022/03/03 14:06:07;;;;;;;;;23.33;21.67;;;;;26.19;39.62;101211.06;5075621;27;45469;-86
2022/03/03 14:08:46;;;;;;;;;21.33;19.00;;;;;26.24;39.90;101213.28;5077043;27;45542;-85
2022/03/03 14:11:23;;;;;;;;;17.33;16.67;;;;;26.27;39.84;101216.53;5089389;27;45507;-96
2022/03/03 14:13:57;;;;;;;;;18.00;15.33;;;;;26.34;40.13;101215.81;5079621;27;45496;-84
2022/03/03 14:16:25;;;;;;;;;24.00;21.67;;;;;26.41;39.99;101222.25;5078835;27;45399;-81
2022/03/03 14:18:52;;;;;;;;;23.33;20.33;;;;;26.49;40.13;101222.22;5083972;27;45461;-86
2022/03/03 14:21:19;;;;;;;;;25.67;18.67;;;;;26.59;39.62;101219.28;5088458;27;45390;-83
2022/03/03 14:23:45;;;;;;;;;26.33;19.67;;;;;26.70;40.04;101223.47;5090939;27;45450;-83
2022/03/03 14:26:12;;;;;;;;;23.00;19.67;;;;;26.80;40.15;101220.50;5103688;27;46478;-83
2022/03/03 14:28:38;;;;;;;;;18.00;16.33;;;;;26.88;40.08;101220.47;5100347;27;45460;-83
2022/03/03 14:31:04;;;;;;;;;16.33;15.00;;;;;26.97;39.44;101224.00;5098491;27;45491;-79
2022/03/03 14:33:30;;;;;;;;;20.00;17.67;;;;;27.08;39.93;101225.47;5094822;27;45611;-80
2022/03/03 14:35:56;;;;;;;;;20.67;18.67;;;;;27.15;39.95;101226.47;5085139;27;46096;-80
2022/03/03 14:38:24;;;;;;;;;21.00;17.67;;;;;27.22;39.79;101221.13;5099031;27;45386;-80
2022/03/03 14:40:50;;;;;;;;;33.67;29.67;;;;;27.26;37.20;101218.88;5094467;27;45747;-81
2022/03/03 14:43:16;;;;;;;;;29.33;24.33;;;;;27.22;36.86;101223.88;5100478;27;45430;-81
2022/03/03 14:45:41;;;;;;;;;26.00;23.00;;;;;27.14;36.57;101216.56;5093237;27;46194;-81
2022/03/03 14:48:07;;;;;;;;;21.33;18.00;;;;;27.05;35.87;101221.25;5090870;27;45559;-83
2022/03/03 14:50:35;;;;;;;;;26.33;22.00;;;;;26.94;36.30;101213.50;5089517;27;45439;-80
2022/03/03 14:53:01;;;;;;;;;33.00;18.67;;;;;26.86;37.12;101214.38;5083651;27;45428;-80
2022/03/03 14:55:26;;;;;;;;;25.67;21.00;;;;;26.82;37.05;101208.41;5088339;27;45408;-82
2022/03/03 14:57:51;;;;;;;;;27.67;24.67;;;;;26.83;37.64;101212.84;5092166;27;45450;-81
2022/03/03 15:00:19;;;;;;;;;19.33;16.00;;;;;26.86;37.49;101202.63;5094010;27;45485;-83
2022/03/03 15:02:45;;;;;;;;;25.00;24.00;;;;;26.89;37.66;101208.53;5097322;27;45388;-82
2022/03/03 15:05:11;;;;;;;;;24.00;20.00;;;;;26.94;37.71;101202.59;5082389;27;45872;-83
2022/03/03 15:07:36;;;;;;;;;19.00;19.00;;;;;26.99;37.36;101202.03;5084998;27;45540;-79
2022/03/03 15:10:03;;;;;;;;;24.00;21.00;;;;;27.04;37.24;101202.34;5093516;27;46128;-82
2022/03/03 15:12:29;;;;;;;;;24.67;18.33;;;;;27.09;37.43;101206.22;5092652;27;45568;-82
2022/03/03 15:14:54;;;;;;;;;22.00;19.33;;;;;27.14;37.32;101202.13;5098952;27;46290;-82
2022/03/03 15:17:19;;;;;;;;;23.33;19.33;;;;;27.21;37.16;101203.94;5098044;27;45615;-82
2022/03/03 15:19:45;;;;;;;;;20.67;15.67;;;;;27.27;36.97;101201.50;5084217;27;45540;-83
2022/03/03 15:22:10;;;;;;;;;20.33;18.33;;;;;27.27;36.53;101198.78;5089878;27;45622;-83
2022/03/03 15:24:36;;;;;;;;;19.00;15.67;;;;;27.21;37.04;101198.47;5090276;27;46946;-82
2022/03/03 15:27:02;;;;;;;;;23.00;19.67;;;;;27.14;36.65;101193.94;5092454;27;45362;-83
2022/03/03 15:29:27;;;;;;;;;19.00;17.33;;;;;27.06;36.48;101192.13;5095342;27;45559;-81
2022/03/03 15:31:53;;;;;;;;;15.33;12.33;;;;;27.02;35.45;101185.34;5099075;27;45666;-82
2022/03/03 15:37:04;;;;;;;;;18.33;13.67;;;;;26.86;35.80;101195.31;5090448;27;45619;-80
2022/03/03 15:39:30;;;;;;;;;10.33;10.33;;;;;26.82;35.28;101191.25;5089415;27;45758;-81
2022/03/03 15:42:00;;;;;;;;;12.33;11.33;;;;;26.78;35.39;101185.31;5094704;27;45476;-81
2022/03/03 15:44:27;;;;;;;;;11.00;11.00;;;;;26.76;35.21;101195.53;5097747;27;45475;-87
2022/03/03 15:46:53;;;;;;;;;11.33;10.33;;;;;26.73;34.90;101192.31;5097461;27;45721;-84
2022/03/03 15:49:20;;;;;;;;;11.67;10.67;;;;;26.74;35.13;101189.44;5101819;27;45942;-85
2022/03/03 15:51:47;;;;;;;;;11.00;10.00;;;;;26.76;34.35;101186.53;5090703;27;45517;-84
2022/03/03 15:54:13;;;;;;;;;10.00;8.00;;;;;26.76;34.24;101192.81;5081151;27;46243;-85
2022/03/03 15:56:40;;;;;;;;;10.00;8.00;;;;;26.74;34.13;101185.84;5081033;27;46165;-84
2022/03/03 15:59:07;;;;;;;;;19.00;15.00;;;;;26.66;33.51;101189.47;5092207;27;45338;-81
2022/03/03 16:01:32;;;;;;;;;11.00;11.00;;;;;26.51;32.81;101194.81;5083964;27;45917;-81
2022/03/03 16:04:00;;;;;;;;;13.33;13.33;;;;;26.31;33.11;101192.53;5082714;27;46065;-84
2022/03/03 16:06:27;;;;;;;;;18.67;14.33;;;;;26.12;33.13;101193.75;5088761;27;45499;-85
2022/03/03 16:08:53;;;;;;;;;16.67;12.33;;;;;25.92;33.77;101192.28;5096970;27;45617;-83
2022/03/03 16:11:19;;;;;;;;;15.00;15.00;;;;;25.85;33.07;101185.84;5092366;27;45741;-81
2022/03/03 16:13:45;;;;;;;;;17.33;16.00;;;;;25.75;33.05;101188.75;5088475;27;47091;-82
2022/03/03 16:16:11;;;;;;;;;13.00;13.00;;;;;25.63;32.70;101187.44;5089178;27;45387;-83
2022/03/03 16:18:36;;;;;;;;;17.67;14.67;;;;;25.55;32.94;101191.00;5086379;27;45413;-82
2022/03/03 16:21:02;;;;;;;;;14.33;12.00;;;;;25.46;32.98;101189.28;5090927;27;45438;-82
2022/03/03 16:23:27;;;;;;;;;15.00;12.33;;;;;25.34;32.72;101184.19;5089289;27;46006;-82
2022/03/03 16:25:54;;;;;;;;;11.67;11.00;;;;;25.21;32.43;101176.53;5090747;27;45276;-82
2022/03/03 16:28:20;;;;;;;;;14.67;10.67;;;;;25.08;32.85;101182.47;5085137;27;45428;-82
2022/03/03 16:30:46;;;;;;;;;13.67;11.00;;;;;24.98;33.40;101182.63;5090193;27;45796;-83
2022/03/03 16:33:11;;;;;;;;;17.33;15.67;;;;;24.89;33.03;101191.78;5088291;27;46047;-85
2022/03/03 16:35:37;;;;;;;;;11.00;10.00;;;;;24.77;32.94;101190.38;5077278;27;45886;-83
2022/03/03 16:38:03;;;;;;;;;16.00;14.00;;;;;24.69;33.15;101188.50;5084420;27;45369;-83
2022/03/03 16:40:28;;;;;;;;;13.67;12.67;;;;;24.58;32.80;101182.38;5083891;27;45393;-82
2022/03/03 16:42:54;;;;;;;;;10.00;9.33;;;;;24.48;33.34;101182.50;5086007;27;45853;-84
2022/03/03 16:45:19;;;;;;;;;10.67;9.67;;;;;24.44;33.38;101189.25;5089957;27;45459;-78
2022/03/03 16:47:49;;;;;;;;;13.00;13.00;;;;;24.37;33.66;101184.66;5079449;27;45883;-78
2022/03/03 16:50:15;;;;;;;;;12.67;11.00;;;;;24.28;33.21;101187.31;5087041;27;45676;-78
2022/03/03 16:52:40;;;;;;;;;13.00;11.67;;;;;24.20;33.77;101192.72;5082599;27;46122;-77
2022/03/03 16:55:06;;;;;;;;;19.67;14.00;;;;;24.15;33.97;101186.94;5086061;27;45424;-78
2022/03/03 16:57:31;;;;;;;;;16.67;15.67;;;;;24.09;34.16;101185.72;5086866;27;45505;-77
2022/03/03 16:59:57;;;;;;;;;15.00;11.67;;;;;24.01;34.44;101183.78;5081880;27;45382;-77
2022/03/03 17:02:22;;;;;;;;;14.67;12.00;;;;;23.90;34.60;101184.91;5084526;27;45388;-78
2022/03/03 17:04:48;;;;;;;;;17.33;13.33;;;;;23.84;33.96;101190.97;5089934;27;45574;-78
2022/03/03 17:07:14;;;;;;;;;13.67;13.33;;;;;23.77;34.43;101189.91;5086566;27;45454;-77
2022/03/03 17:09:40;;;;;;;;;13.33;13.00;;;;;23.65;34.63;101192.03;5088364;27;45978;-78
2022/03/03 17:12:06;;;;;;;;;11.00;10.67;;;;;23.57;35.15;101197.41;5085997;27;46273;-77
2022/03/03 17:14:33;;;;;;;;;12.00;12.00;;;;;23.51;34.87;101198.88;5088462;27;45597;-84